Time;durP1;ratioP1;P1;durP2;ratioP2;P2;SDS_P1;SDS_P2;PMS_P1;PMS_P2;Temp;Humidity;BMP_temperature;BMP_pressure;BME280_temperature;BME280_humidity;BME280_pressure;Samples;Min_cycle;Max_cycle;Signal;HPM_P1;HPM_P2
2022/06/26 00:00:44;;;;;;;5.05;2.15;;;12.30;99.90;;;;;;4991937;28;20109;-59
2022/06/26 00:03:10;;;;;;;7.60;2.40;;;12.30;99.90;;;;;;4989963;28;20038;-49
2022/06/26 00:05:36;;;;;;;3.75;2.00;;;12.30;99.90;;;;;;4978838;28;20026;-56
2022/06/26 00:08:02;;;;;;;5.55;2.53;;;12.30;99.90;;;;;;4992047;28;20026;-54
2022/06/26 00:10:28;;;;;;;3.85;2.13;;;12.30;99.90;;;;;;4989905;28;20026;-57
2022/06/26 00:12:54;;;;;;;5.88;2.03;;;12.30;99.90;;;;;;4991327;28;20022;-53
2022/06/26 00:15:20;;;;;;;4.85;2.10;;;12.30;99.90;;;;;;4991367;28;20041;-51
2022/06/26 00:17:46;;;;;;;6.68;2.00;;;12.30;99.90;;;;;;4991588;28;20038;-46
2022/06/26 00:20:12;;;;;;;4.30;1.90;;;12.30;99.90;;;;;;4991583;28;20022;-53
2022/06/26 00:22:37;;;;;;;7.03;2.65;;;12.30;99.90;;;;;;4991552;28;20082;-50
2022/06/26 00:25:04;;;;;;;4.53;1.90;;;12.40;99.90;;;;;;4985916;28;20070;-51
2022/06/26 00:27:29;;;;;;;3.60;2.10;;;12.30;99.90;;;;;;4990750;28;20458;-51
2022/06/26 00:29:55;;;;;;;7.55;2.33;;;12.30;99.90;;;;;;4991718;28;20061;-57
2022/06/26 00:32:21;;;;;;;4.22;2.05;;;12.30;99.90;;;;;;4991493;28;20547;-50
2022/06/26 00:34:46;;;;;;;2.83;1.98;;;12.30;99.90;;;;;;4991466;28;20026;-58
2022/06/26 00:37:12;;;;;;;3.72;2.15;;;12.30;99.90;;;;;;4991311;28;20081;-55
2022/06/26 00:39:38;;;;;;;8.70;2.22;;;12.40;99.90;;;;;;4991591;28;20117;-52
2022/06/26 00:42:04;;;;;;;4.07;2.10;;;12.40;99.90;;;;;;4991487;28;20034;-61
2022/06/26 00:44:30;;;;;;;3.88;1.73;;;12.30;99.90;;;;;;4991271;28;20033;-53
2022/06/26 00:46:55;;;;;;;5.90;1.90;;;12.40;99.90;;;;;;4989168;28;20027;-49
2022/06/26 00:49:21;;;;;;;7.57;2.40;;;12.40;99.90;;;;;;4984918;28;20421;-51
2022/06/26 00:51:49;;;;;;;5.60;2.15;;;12.40;99.90;;;;;;4983342;28;20421;-56
2022/06/26 00:54:16;;;;;;;5.05;1.92;;;12.40;99.90;;;;;;4983180;28;20110;-45
2022/06/26 00:56:42;;;;;;;4.72;2.00;;;12.40;99.90;;;;;;4991204;28;20110;-51
2022/06/26 00:59:08;;;;;;;3.35;1.80;;;12.40;99.90;;;;;;4991500;28;20117;-55
2022/06/26 01:01:34;;;;;;;4.32;2.03;;;12.30;99.90;;;;;;4991255;28;20030;-60
2022/06/26 01:04:01;;;;;;;4.93;2.35;;;12.30;99.90;;;;;;4991209;28;20034;-52
2022/06/26 01:06:27;;;;;;;7.95;3.03;;;12.30;99.90;;;;;;4991190;28;20072;-49
2022/06/26 01:08:54;;;;;;;5.65;2.13;;;12.30;99.90;;;;;;4991262;28;20023;-58
2022/06/26 01:11:20;;;;;;;4.28;2.05;;;12.30;99.90;;;;;;4991257;28;20049;-56
2022/06/26 01:13:48;;;;;;;4.53;2.10;;;12.30;99.90;;;;;;4991329;28;20050;-54
2022/06/26 01:16:17;;;;;;;4.43;2.10;;;12.30;99.90;;;;;;4991007;28;20169;-61
2022/06/26 01:18:45;;;;;;;4.82;2.13;;;12.30;99.90;;;;;;4990930;28;20519;-49
2022/06/26 01:21:11;;;;;;;5.38;2.15;;;12.30;99.90;;;;;;4991398;28;20026;-45
2022/06/26 01:23:37;;;;;;;3.17;1.77;;;12.30;99.90;;;;;;4990911;28;20057;-62
2022/06/26 01:26:04;;;;;;;4.32;2.15;;;12.20;99.90;;;;;;4993923;28;20097;-58
2022/06/26 01:28:30;;;;;;;4.10;2.30;;;12.20;99.90;;;;;;4994631;28;20470;-51
2022/06/26 01:30:56;;;;;;;4.20;2.35;;;12.10;99.90;;;;;;4994603;28;20166;-40
2022/06/26 01:33:22;;;;;;;6.28;2.42;;;12.00;99.90;;;;;;4994445;28;20504;-39
2022/06/26 01:35:48;;;;;;;4.60;2.10;;;11.80;99.90;;;;;;4994393;28;20105;-41
2022/06/26 01:38:16;;;;;;;4.53;2.40;;;11.90;99.90;;;;;;4994450;28;20034;-39
2022/06/26 01:40:43;;;;;;;3.42;1.92;;;11.80;99.90;;;;;;4994371;28;20018;-39
2022/06/26 01:43:10;;;;;;;3.90;2.05;;;11.80;99.90;;;;;;4994442;28;20023;-39
2022/06/26 01:45:43;;;;;;;3.03;2.00;;;11.80;99.90;;;;;;4994302;28;20031;-39
2022/06/26 01:48:09;;;;;;;4.70;2.50;;;11.80;99.90;;;;;;4994195;28;20026;-39
2022/06/26 01:50:35;;;;;;;4.65;2.20;;;11.80;99.90;;;;;;4994325;28;20089;-39
2022/06/26 01:53:01;;;;;;;4.70;2.45;;;11.70;99.90;;;;;;4994067;28;20058;-39
2022/06/26 01:55:26;;;;;;;5.90;2.70;;;11.70;99.90;;;;;;4994238;28;20433;-39
2022/06/26 01:57:52;;;;;;;4.00;2.03;;;11.70;99.90;;;;;;4994063;28;20473;-41
2022/06/26 02:00:18;;;;;;;7.60;3.30;;;11.70;99.90;;;;;;4993956;28;20057;-55
2022/06/26 02:02:43;;;;;;;4.90;2.53;;;11.70;99.90;;;;;;4994294;28;20520;-56
2022/06/26 02:05:09;;;;;;;5.60;2.63;;;11.70;99.90;;;;;;4993968;28;20027;-45
2022/06/26 02:07:35;;;;;;;4.72;2.28;;;11.70;99.90;;;;;;4994026;28;20496;-53
2022/06/26 02:15:29;;;;;;;4.95;2.58;;;11.70;99.90;;;;;;4993996;28;20038;-52
2022/06/26 02:17:55;;;;;;;5.80;2.53;;;11.70;99.90;;;;;;4993627;28;20038;-57
2022/06/26 02:20:21;;;;;;;3.50;2.00;;;11.70;99.90;;;;;;4993699;28;20037;-56
2022/06/26 02:22:47;;;;;;;3.97;1.95;;;11.70;99.90;;;;;;4993618;28;20134;-56
2022/06/26 02:25:12;;;;;;;7.60;2.10;;;11.70;99.90;;;;;;4993561;28;20033;-49
2022/06/26 02:27:38;;;;;;;6.00;2.15;;;11.70;99.90;;;;;;4993703;28;20022;-56
2022/06/26 02:30:04;;;;;;;4.93;2.20;;;11.80;99.90;;;;;;4993643;28;20022;-44
2022/06/26 02:32:30;;;;;;;4.80;2.17;;;11.70;99.90;;;;;;4993356;28;20030;-56
2022/06/26 02:34:56;;;;;;;4.18;2.50;;;11.80;99.90;;;;;;4976199;28;20022;-43
2022/06/26 02:37:21;;;;;;;3.17;2.08;;;11.70;99.90;;;;;;4992542;28;20885;-53
2022/06/26 02:39:47;;;;;;;6.85;2.35;;;11.70;99.90;;;;;;4993518;28;20037;-45
2022/06/26 02:42:13;;;;;;;3.50;1.98;;;11.70;99.90;;;;;;4993221;28;20029;-51
2022/06/26 02:44:38;;;;;;;5.68;2.35;;;11.70;99.90;;;;;;4983122;28;20019;-57
2022/06/26 02:47:04;;;;;;;6.03;2.50;;;11.70;99.90;;;;;;4985749;28;20117;-53
2022/06/26 02:49:29;;;;;;;4.13;2.00;;;11.70;99.90;;;;;;4990221;28;20037;-53
2022/06/26 02:51:55;;;;;;;5.38;2.08;;;11.80;99.90;;;;;;4991857;28;20445;-46
2022/06/26 02:54:21;;;;;;;5.35;2.30;;;11.80;99.90;;;;;;4993029;28;20035;-41
2022/06/26 02:56:47;;;;;;;4.22;2.20;;;11.80;99.90;;;;;;4993199;28;20169;-40
2022/06/26 02:59:13;;;;;;;4.80;1.83;;;11.80;99.90;;;;;;4993030;28;20106;-43
2022/06/26 03:01:38;;;;;;;7.82;3.00;;;11.80;99.90;;;;;;4992922;28;20161;-50
2022/06/26 03:04:05;;;;;;;4.45;2.10;;;11.80;99.90;;;;;;4992951;28;20442;-55
2022/06/26 03:06:30;;;;;;;6.35;2.22;;;11.80;99.90;;;;;;4992781;28;20034;-49
2022/06/26 03:08:56;;;;;;;6.10;2.17;;;11.80;99.90;;;;;;4992845;28;20436;-53
2022/06/26 03:11:22;;;;;;;6.28;2.30;;;11.80;99.90;;;;;;4992710;28;20048;-55
2022/06/26 03:13:47;;;;;;;7.43;2.50;;;11.90;99.90;;;;;;4992745;28;20093;-56
2022/06/26 03:16:13;;;;;;;4.38;2.78;;;11.90;99.90;;;;;;4992649;28;20022;-52
2022/06/26 03:18:39;;;;;;;4.88;2.10;;;11.90;99.90;;;;;;4992627;28;20026;-46
2022/06/26 03:21:05;;;;;;;5.50;2.28;;;11.90;99.90;;;;;;4992761;28;20113;-57
2022/06/26 03:26:15;;;;;;;3.53;1.98;;;11.90;99.90;;;;;;4992828;28;20096;-57
2022/06/26 03:28:41;;;;;;;3.38;2.10;;;11.80;99.90;;;;;;4991118;28;20030;-54
2022/06/26 03:31:07;;;;;;;4.03;1.98;;;11.70;99.90;;;;;;4992465;28;20106;-55
2022/06/26 03:33:32;;;;;;;4.30;2.22;;;11.50;99.90;;;;;;4992472;28;20085;-55
2022/06/26 03:35:58;;;;;;;4.90;2.17;;;11.50;99.90;;;;;;4958210;28;20026;-54
2022/06/26 03:38:24;;;;;;;3.63;2.33;;;11.50;99.90;;;;;;4972182;28;20046;-55
2022/06/26 03:40:50;;;;;;;4.40;2.15;;;11.40;99.90;;;;;;4972053;28;20069;-53
2022/06/26 03:43:15;;;;;;;3.97;2.03;;;11.40;99.90;;;;;;4972699;28;20091;-55
2022/06/26 03:45:41;;;;;;;7.97;2.15;;;11.50;99.90;;;;;;4972654;28;20034;-53
2022/06/26 03:48:07;;;;;;;4.90;2.30;;;11.50;99.90;;;;;;4973459;28;20018;-62
2022/06/26 03:50:33;;;;;;;3.97;1.88;;;11.50;99.90;;;;;;4978562;28;20054;-52
2022/06/26 03:53:00;;;;;;;5.32;2.00;;;11.60;99.90;;;;;;4979179;28;20054;-55
2022/06/26 03:55:26;;;;;;;7.00;2.25;;;11.60;99.90;;;;;;4972017;28;20478;-58
2022/06/26 03:57:51;;;;;;;4.43;1.92;;;11.70;99.90;;;;;;4972169;28;20097;-52
2022/06/26 04:00:17;;;;;;;4.68;2.20;;;11.60;99.90;;;;;;4972499;28;20114;-46
2022/06/26 04:02:43;;;;;;;4.00;1.70;;;11.60;99.90;;;;;;4972439;28;20386;-46
2022/06/26 04:05:09;;;;;;;5.68;1.90;;;11.60;99.90;;;;;;4972286;28;20033;-55
2022/06/26 04:07:34;;;;;;;6.85;2.03;;;11.60;99.90;;;;;;4972469;28;20035;-42
2022/06/26 04:10:00;;;;;;;6.55;2.13;;;11.60;99.90;;;;;;4972451;28;20033;-46
2022/06/26 04:12:26;;;;;;;2.92;1.65;;;11.60;99.90;;;;;;4972137;28;20031;-48
2022/06/26 04:14:52;;;;;;;6.10;1.85;;;11.70;99.90;;;;;;4972356;28;20076;-45
2022/06/26 04:17:18;;;;;;;2.90;1.60;;;11.70;99.90;;;;;;4972136;28;20070;-54
2022/06/26 04:19:43;;;;;;;6.28;1.80;;;11.70;99.90;;;;;;4972192;28;20065;-48
2022/06/26 04:22:09;;;;;;;7.10;2.17;;;11.70;99.90;;;;;;4971988;28;20058;-53
2022/06/26 04:24:35;;;;;;;4.43;1.73;;;11.80;99.90;;;;;;4972219;28;20051;-45
2022/06/26 04:27:01;;;;;;;3.72;1.65;;;11.80;99.90;;;;;;4972425;28;20035;-53
2022/06/26 04:29:27;;;;;;;5.13;1.98;;;11.80;99.90;;;;;;4971857;28;20031;-48
2022/06/26 04:31:53;;;;;;;4.93;1.90;;;11.90;99.90;;;;;;4972187;28;20027;-44
2022/06/26 04:34:18;;;;;;;4.60;1.63;;;11.90;99.90;;;;;;4972170;28;20031;-49
2022/06/26 04:36:45;;;;;;;4.53;2.00;;;11.90;99.90;;;;;;4971948;28;20450;-52
2022/06/26 04:39:10;;;;;;;6.53;1.80;;;11.90;99.90;;;;;;4972186;28;20027;-50
2022/06/26 04:41:36;;;;;;;5.72;1.80;;;12.10;99.90;;;;;;4972079;28;20511;-50
2022/06/26 04:44:08;;;;;;;5.55;1.90;;;12.20;99.90;;;;;;4954570;28;20398;-48
2022/06/26 04:46:35;;;;;;;3.60;1.70;;;12.40;99.90;;;;;;4972046;28;20486;-52
2022/06/26 04:49:01;;;;;;;4.00;1.40;;;12.50;99.90;;;;;;4971189;28;20386;-44
2022/06/26 04:51:26;;;;;;;4.60;1.60;;;12.70;99.90;;;;;;4971709;28;20027;-42
2022/06/26 04:53:52;;;;;;;3.97;1.65;;;12.80;99.90;;;;;;4971868;28;20027;-43
2022/06/26 04:56:18;;;;;;;4.50;1.52;;;13.00;99.90;;;;;;4971858;28;20037;-52
2022/06/26 04:58:44;;;;;;;4.28;1.52;;;13.40;99.90;;;;;;4971915;28;20039;-53
2022/06/26 05:01:10;;;;;;;2.53;1.48;;;13.60;99.90;;;;;;4974852;28;20034;-55
2022/06/26 05:03:35;;;;;;;3.78;1.10;;;13.90;99.90;;;;;;4975655;28;20106;-45
2022/06/26 05:06:01;;;;;;;3.80;1.13;;;14.30;99.90;;;;;;4975740;28;20026;-50
2022/06/26 05:08:27;;;;;;;3.38;1.30;;;14.30;99.90;;;;;;4975579;28;20110;-45
2022/06/26 05:10:52;;;;;;;3.40;1.20;;;14.30;99.70;;;;;;4975634;28;20022;-51
2022/06/26 05:13:18;;;;;;;7.20;1.52;;;14.20;99.80;;;;;;4975548;28;20110;-42
2022/06/26 05:15:44;;;;;;;3.75;1.30;;;14.00;99.90;;;;;;4975617;28;20097;-52
2022/06/26 05:18:09;;;;;;;3.60;1.10;;;13.90;99.90;;;;;;4975428;28;20158;-47
2022/06/26 05:20:35;;;;;;;2.70;1.15;;;13.70;99.90;;;;;;4958024;28;20544;-53
2022/06/26 05:23:01;;;;;;;4.07;1.30;;;13.60;99.90;;;;;;4975223;28;20054;-50
2022/06/26 05:25:26;;;;;;;3.25;1.15;;;13.50;99.90;;;;;;4975180;28;20027;-50
2022/06/26 05:27:52;;;;;;;4.65;1.35;;;13.40;99.90;;;;;;4975272;28;20019;-57
2022/06/26 05:30:18;;;;;;;3.95;1.08;;;13.40;99.90;;;;;;4975236;28;20026;-51
2022/06/26 05:32:44;;;;;;;3.75;1.20;;;13.50;99.90;;;;;;4975199;28;20077;-48
2022/06/26 05:35:10;;;;;;;4.55;1.30;;;13.60;99.90;;;;;;4975440;28;20031;-41
2022/06/26 05:37:35;;;;;;;4.57;1.27;;;13.80;99.90;;;;;;4974952;28;20702;-48
2022/06/26 05:40:01;;;;;;;7.32;1.30;;;14.00;99.90;;;;;;4974671;28;20023;-49
2022/06/26 05:42:27;;;;;;;7.13;1.95;;;14.20;99.40;;;;;;4975121;28;20027;-51
2022/06/26 05:44:53;;;;;;;5.32;1.45;;;14.50;99.00;;;;;;4975022;28;20030;-46
2022/06/26 05:47:18;;;;;;;6.15;1.27;;;14.70;98.60;;;;;;4974845;28;20058;-49
2022/06/26 05:49:44;;;;;;;3.90;1.02;;;15.00;98.00;;;;;;4973564;28;20378;-51
2022/06/26 05:52:09;;;;;;;3.10;1.00;;;15.30;98.00;;;;;;4974694;28;20489;-49
2022/06/26 05:54:35;;;;;;;3.95;1.10;;;15.70;97.00;;;;;;4974647;28;20033;-51
2022/06/26 05:57:01;;;;;;;2.30;0.65;;;16.20;95.80;;;;;;4974573;28;20050;-57
2022/06/26 05:59:26;;;;;;;6.68;1.48;;;16.80;94.70;;;;;;4974611;28;20027;-52
2022/06/26 06:01:52;;;;;;;4.43;1.05;;;17.30;93.50;;;;;;4974503;28;20093;-49
2022/06/26 06:04:18;;;;;;;2.97;0.80;;;17.90;91.80;;;;;;4974661;28;20106;-50
2022/06/26 06:06:43;;;;;;;4.53;0.90;;;18.10;90.90;;;;;;4974478;28;20090;-42
2022/06/26 06:09:09;;;;;;;5.70;1.05;;;18.40;90.90;;;;;;4974637;28;20050;-50
2022/06/26 06:11:35;;;;;;;5.70;0.90;;;19.00;90.30;;;;;;4973232;28;20086;-50
2022/06/26 06:14:00;;;;;;;4.65;1.13;;;19.60;89.00;;;;;;4974503;28;20041;-48
2022/06/26 06:16:26;;;;;;;6.00;0.90;;;19.70;84.10;;;;;;4974239;28;20394;-46
2022/06/26 06:18:52;;;;;;;2.70;0.70;;;20.10;81.80;;;;;;4974357;28;20406;-51
2022/06/26 06:21:17;;;;;;;3.05;0.90;;;20.10;80.00;;;;;;4974141;28;20039;-50
2022/06/26 06:23:43;;;;;;;7.95;1.00;;;20.00;83.50;;;;;;4973846;28;20051;-45
2022/06/26 06:26:12;;;;;;;5.45;1.20;;;20.20;83.90;;;;;;4974324;28;20177;-43
2022/06/26 06:28:38;;;;;;;4.47;0.98;;;20.40;79.60;;;;;;4974146;28;20104;-52
2022/06/26 06:31:04;;;;;;;5.78;0.90;;;20.70;77.60;;;;;;4974085;28;20443;-45
2022/06/26 06:33:30;;;;;;;4.95;1.00;;;21.00;80.60;;;;;;4974159;28;20030;-49
2022/06/26 06:35:55;;;;;;;6.15;1.08;;;21.20;76.80;;;;;;4974105;28;20422;-50
2022/06/26 06:38:22;;;;;;;1.70;0.60;;;21.20;73.40;;;;;;4956718;28;20390;-46
2022/06/26 06:40:47;;;;;;;4.22;1.10;;;21.20;75.10;;;;;;4973872;28;20050;-42
2022/06/26 06:43:13;;;;;;;5.15;0.98;;;21.60;73.10;;;;;;4973862;28;20117;-54
2022/06/26 06:45:39;;;;;;;4.07;0.80;;;21.60;71.00;;;;;;4973789;28;20039;-46
2022/06/26 06:48:06;;;;;;;4.50;1.05;;;21.80;71.60;;;;;;4973760;28;20474;-53
2022/06/26 06:50:31;;;;;;;6.10;1.10;;;21.30;70.80;;;;;;4973660;28;20537;-45
2022/06/26 06:52:57;;;;;;;7.72;1.75;;;21.00;73.20;;;;;;4973579;28;20035;-44
2022/06/26 06:55:23;;;;;;;5.88;1.20;;;21.20;74.40;;;;;;4973738;28;20023;-42
2022/06/26 06:57:49;;;;;;;2.67;0.70;;;21.50;74.40;;;;;;4973263;28;20398;-54
2022/06/26 07:00:15;;;;;;;8.35;1.08;;;22.10;72.80;;;;;;4973296;28;20027;-50
2022/06/26 07:02:40;;;;;;;5.47;1.00;;;22.00;67.70;;;;;;4972661;28;20560;-49
2022/06/26 07:05:08;;;;;;;5.50;1.05;;;21.20;69.30;;;;;;4973137;28;20434;-55
2022/06/26 07:07:35;;;;;;;4.85;1.40;;;20.50;72.50;;;;;;4969589;28;20019;-50
2022/06/26 07:10:01;;;;;;;6.90;1.33;;;19.90;76.50;;;;;;4973124;28;20046;-55
2022/06/26 07:12:26;;;;;;;5.63;0.98;;;19.70;77.30;;;;;;4973246;28;20023;-52
2022/06/26 07:14:53;;;;;;;8.00;1.65;;;20.40;75.90;;;;;;4972892;28;20389;-56
2022/06/26 07:17:21;;;;;;;7.00;1.70;;;21.00;73.60;;;;;;4973426;28;20042;-55
2022/06/26 07:19:47;;;;;;;6.65;1.10;;;21.70;72.50;;;;;;4973426;28;20142;-41
2022/06/26 07:22:12;;;;;;;5.35;1.15;;;22.30;68.70;;;;;;4971574;28;20513;-42
2022/06/26 07:24:39;;;;;;;5.22;1.17;;;22.10;67.50;;;;;;4972971;28;20046;-48
2022/06/26 07:27:05;;;;;;;5.25;0.98;;;22.60;67.40;;;;;;4954376;28;20081;-42
2022/06/26 07:29:31;;;;;;;2.95;0.75;;;23.00;65.70;;;;;;4972855;28;20474;-44
2022/06/26 07:31:57;;;;;;;4.85;1.20;;;23.60;61.60;;;;;;4971392;28;20035;-49
2022/06/26 07:34:24;;;;;;;7.30;1.08;;;23.70;59.60;;;;;;4972770;28;20023;-45
2022/06/26 07:36:50;;;;;;;5.40;1.00;;;22.80;59.90;;;;;;4971677;28;20049;-46
2022/06/26 07:39:19;;;;;;;3.03;1.13;;;22.30;62.50;;;;;;4972771;28;20157;-49
2022/06/26 07:41:46;;;;;;;4.30;0.93;;;22.40;64.40;;;;;;4971851;28;20034;-47
2022/06/26 07:44:12;;;;;;;8.40;1.00;;;22.60;63.50;;;;;;4970266;28;20031;-51
2022/06/26 07:46:39;;;;;;;3.65;1.08;;;22.70;64.30;;;;;;4972584;28;20027;-46
2022/06/26 07:49:06;;;;;;;5.15;1.15;;;22.40;67.80;;;;;;4971445;28;20022;-42
2022/06/26 07:51:32;;;;;;;5.32;1.02;;;22.20;62.30;;;;;;4972601;28;20030;-44
2022/06/26 07:53:58;;;;;;;4.50;1.30;;;21.90;66.10;;;;;;4972299;28;20475;-44
2022/06/26 07:56:25;;;;;;;2.28;0.80;;;22.00;64.60;;;;;;4971840;28;20054;-48
2022/06/26 07:58:52;;;;;;;6.78;1.15;;;22.00;64.90;;;;;;4970895;28;20039;-43
2022/06/26 08:01:18;;;;;;;5.80;1.10;;;21.60;64.50;;;;;;4971250;28;20023;-46
2022/06/26 08:03:44;;;;;;;6.47;0.93;;;21.20;67.00;;;;;;4971456;28;20039;-53
2022/06/26 08:06:10;;;;;;;6.40;1.23;;;21.30;69.90;;;;;;4972235;28;20066;-45
2022/06/26 08:08:37;;;;;;;7.68;1.10;;;22.30;68.40;;;;;;4971343;28;20027;-45
2022/06/26 08:11:03;;;;;;;5.60;1.00;;;23.20;64.20;;;;;;4972264;28;20038;-47
2022/06/26 08:13:29;;;;;;;4.88;1.27;;;23.70;64.40;;;;;;4970982;28;20663;-54
2022/06/26 08:15:56;;;;;;;4.75;0.90;;;23.40;58.40;;;;;;4972027;28;20066;-50
2022/06/26 08:18:22;;;;;;;4.28;1.10;;;22.50;59.90;;;;;;4971767;28;20513;-45
2022/06/26 08:20:48;;;;;;;4.05;1.08;;;21.30;65.20;;;;;;4971602;28;20022;-52
2022/06/26 08:23:13;;;;;;;3.88;1.00;;;20.60;67.70;;;;;;4970174;28;20046;-43
2022/06/26 08:25:40;;;;;;;4.95;0.95;;;20.30;69.30;;;;;;4971822;28;20027;-48
2022/06/26 08:28:06;;;;;;;5.60;1.02;;;21.00;73.40;;;;;;4971653;28;20042;-44
2022/06/26 08:30:31;;;;;;;6.15;1.20;;;21.80;72.60;;;;;;4972051;28;20027;-43
2022/06/26 08:32:58;;;;;;;5.07;1.00;;;22.30;69.60;;;;;;4971562;28;20478;-46
2022/06/26 08:35:26;;;;;;;5.43;1.10;;;22.80;65.70;;;;;;4970886;28;20126;-53
2022/06/26 08:37:52;;;;;;;8.40;1.55;;;23.50;61.70;;;;;;4971784;28;20508;-49
2022/06/26 08:40:17;;;;;;;4.70;1.23;;;22.90;62.20;;;;;;4971780;28;20102;-53
2022/06/26 08:42:48;;;;;;;7.78;1.65;;;22.10;65.70;;;;;;4971809;28;20026;-45
2022/06/26 08:45:18;;;;;;;7.93;1.20;;;21.90;66.50;;;;;;4970809;28;20023;-48
2022/06/26 08:47:52;;;;;;;4.88;0.90;;;21.40;64.40;;;;;;4970584;28;20034;-48
2022/06/26 08:50:22;;;;;;;3.30;1.00;;;20.90;67.80;;;;;;4971331;28;20047;-44
2022/06/26 08:52:51;;;;;;;9.82;1.27;;;21.00;65.40;;;;;;4968527;28;20520;-46
2022/06/26 08:55:17;;;;;;;6.35;1.30;;;21.10;69.50;;;;;;4971604;28;20062;-56
2022/06/26 08:57:43;;;;;;;3.83;0.93;;;21.40;71.80;;;;;;4971060;28;20053;-49
2022/06/26 09:00:09;;;;;;;4.57;1.05;;;21.50;70.60;;;;;;4971781;28;20023;-47
2022/06/26 09:02:35;;;;;;;4.57;1.00;;;22.30;65.40;;;;;;4971847;28;20035;-46
2022/06/26 09:05:01;;;;;;;4.35;1.10;;;22.70;65.20;;;;;;4971641;28;20389;-51
2022/06/26 09:07:26;;;;;;;3.40;0.80;;;23.10;65.40;;;;;;4971695;28;20054;-52
2022/06/26 09:09:52;;;;;;;3.50;1.00;;;23.50;60.70;;;;;;4971095;28;20410;-50
2022/06/26 09:12:18;;;;;;;3.63;1.02;;;23.40;57.00;;;;;;4971178;28;20018;-46
2022/06/26 09:14:44;;;;;;;2.85;0.85;;;22.70;61.20;;;;;;4971659;28;20027;-49
2022/06/26 09:17:09;;;;;;;2.78;0.90;;;21.80;60.50;;;;;;4971438;28;20042;-52
2022/06/26 09:19:36;;;;;;;4.28;0.80;;;21.60;67.30;;;;;;4971849;28;20042;-49
2022/06/26 09:22:09;;;;;;;3.30;0.90;;;21.40;63.00;;;;;;4971282;28;20058;-55
2022/06/26 09:24:36;;;;;;;3.70;0.80;;;21.20;67.20;;;;;;4971602;28;20047;-46
2022/06/26 09:27:05;;;;;;;3.97;0.70;;;21.60;66.80;;;;;;4952152;28;20358;-51
2022/06/26 09:29:31;;;;;;;4.75;1.40;;;22.00;65.50;;;;;;4969606;28;20027;-51
2022/06/26 09:32:09;;;;;;;3.72;0.70;;;22.30;61.90;;;;;;4969544;28;20034;-44
2022/06/26 09:34:35;;;;;;;4.50;0.88;;;22.40;60.30;;;;;;4969652;28;20037;-46
2022/06/26 09:37:04;;;;;;;6.25;1.10;;;22.10;60.80;;;;;;4969795;28;20121;-43
2022/06/26 09:39:31;;;;;;;5.07;0.82;;;22.70;65.30;;;;;;4969871;28;20027;-43
2022/06/26 09:41:57;;;;;;;3.92;1.00;;;23.10;58.20;;;;;;4971025;28;20057;-43
2022/06/26 09:44:23;;;;;;;7.07;1.23;;;23.10;61.50;;;;;;4971229;28;20046;-45
2022/06/26 09:46:50;;;;;;;4.68;0.90;;;23.40;58.50;;;;;;4973600;28;20019;-43
2022/06/26 09:49:17;;;;;;;4.00;1.23;;;23.40;58.90;;;;;;4974731;28;20209;-42
2022/06/26 09:51:43;;;;;;;4.28;1.15;;;23.40;55.40;;;;;;4974670;28;20027;-42
2022/06/26 09:54:09;;;;;;;5.80;1.30;;;23.60;59.60;;;;;;4974671;28;20027;-41
2022/06/26 09:56:35;;;;;;;4.95;1.40;;;24.00;60.50;;;;;;4974522;28;20031;-42
2022/06/26 09:59:01;;;;;;;5.90;1.33;;;24.70;59.40;;;;;;4974636;28;20034;-48
2022/06/26 10:07:01;;;;;;;3.90;0.80;;;24.80;52.50;;;;;;4974489;28;20097;-46
2022/06/26 10:09:28;;;;;;;5.03;1.10;;;24.00;52.20;;;;;;4974429;28;20081;-50
2022/06/26 10:11:58;;;;;;;2.20;0.70;;;23.80;53.90;;;;;;4974392;28;20153;-42
2022/06/26 10:14:28;;;;;;;5.15;0.90;;;23.80;55.70;;;;;;4974594;28;20022;-54
2022/06/26 10:17:15;;;;;;;3.90;0.93;;;24.30;58.40;;;;;;4974196;28;20393;-48
2022/06/26 10:19:46;;;;;;;6.10;1.33;;;24.00;54.40;;;;;;4974487;28;20050;-47
2022/06/26 10:22:15;;;;;;;4.68;1.08;;;23.40;56.70;;;;;;4974098;28;20042;-49
2022/06/26 10:24:51;;;;;;;5.10;1.27;;;23.80;58.60;;;;;;4974236;28;20446;-48
2022/06/26 10:27:26;;;;;;;6.72;1.40;;;24.00;54.30;;;;;;4974194;28;20019;-48
2022/06/26 10:30:06;;;;;;;3.65;1.05;;;24.20;55.70;;;;;;4956948;28;20038;-54
2022/06/26 10:32:33;;;;;;;6.03;1.10;;;24.20;51.60;;;;;;4974063;28;20386;-52
2022/06/26 10:34:58;;;;;;;6.57;1.02;;;24.00;51.10;;;;;;4974047;28;20027;-46
2022/06/26 10:37:25;;;;;;;4.45;0.90;;;24.30;53.20;;;;;;4974104;28;20045;-47
2022/06/26 10:39:53;;;;;;;5.00;0.95;;;24.20;51.90;;;;;;4973921;28;20103;-44
2022/06/26 10:45:35;;;;;;;6.00;1.05;;;24.70;54.60;;;;;;4974185;28;20029;-49
2022/06/26 10:48:04;;;;;;;2.03;0.80;;;24.30;51.20;;;;;;4961412;28;20062;-46
2022/06/26 10:50:31;;;;;;;2.72;0.80;;;24.30;53.80;;;;;;4973751;28;20022;-53
2022/06/26 10:53:23;;;;;;;9.27;1.00;;;24.30;51.00;;;;;;4973668;28;20440;-59
2022/06/26 10:55:52;;;;;;;3.10;0.85;;;24.40;57.20;;;;;;4973551;28;20069;-53
2022/06/26 10:58:35;;;;;;;4.35;0.88;;;24.50;53.00;;;;;;4972912;28;20081;-52
2022/06/26 11:01:07;;;;;;;4.80;0.88;;;24.50;51.60;;;;;;4973502;28;20054;-53
2022/06/26 11:03:33;;;;;;;4.22;0.90;;;24.40;50.90;;;;;;4973482;28;20023;-52
2022/06/26 11:06:14;;;;;;;5.47;0.88;;;24.00;51.70;;;;;;4973519;28;20046;-52
2022/06/26 11:08:47;;;;;;;2.75;0.80;;;24.00;53.70;;;;;;4973540;28;20037;-43
2022/06/26 11:11:17;;;;;;;4.97;1.33;;;23.60;55.10;;;;;;4973480;28;20026;-50
2022/06/26 11:14:01;;;;;;;6.07;0.95;;;24.00;56.50;;;;;;4973201;28;20114;-45
2022/06/26 11:16:32;;;;;;;4.90;1.30;;;24.10;59.10;;;;;;4973299;28;20425;-52
2022/06/26 11:19:00;;;;;;;5.75;0.80;;;24.40;57.60;;;;;;4973250;28;20030;-49
2022/06/26 11:21:29;;;;;;;4.82;1.02;;;24.60;52.80;;;;;;4955755;28;20038;-45
2022/06/26 11:23:55;;;;;;;4.43;1.15;;;24.80;54.20;;;;;;4972758;28;20051;-47
2022/06/26 11:26:22;;;;;;;3.85;0.75;;;24.60;51.60;;;;;;4973053;28;20042;-54
2022/06/26 11:29:00;;;;;;;3.38;0.82;;;24.90;55.70;;;;;;4972925;28;20121;-53
2022/06/26 11:31:30;;;;;;;5.70;0.80;;;25.10;53.10;;;;;;4973065;28;20031;-55
2022/06/26 11:34:06;;;;;;;3.72;0.90;;;24.60;51.00;;;;;;4972896;28;20031;-46
2022/06/26 11:36:32;;;;;;;4.38;1.30;;;24.60;50.00;;;;;;4972927;28;20099;-52
2022/06/26 11:38:57;;;;;;;7.95;0.95;;;24.30;54.10;;;;;;4972752;28;20030;-52
2022/06/26 11:41:24;;;;;;;6.65;1.02;;;24.50;50.50;;;;;;4972835;28;20475;-47
2022/06/26 11:43:53;;;;;;;5.53;0.98;;;24.40;53.70;;;;;;4972530;28;20077;-50
2022/06/26 11:46:19;;;;;;;5.53;0.77;;;24.50;57.80;;;;;;4972820;28;20099;-42
2022/06/26 11:48:48;;;;;;;3.28;0.80;;;24.80;49.00;;;;;;4972830;28;20033;-42
2022/06/26 11:51:16;;;;;;;2.92;0.70;;;24.80;53.30;;;;;;4972424;28;20590;-49
2022/06/26 11:53:44;;;;;;;6.78;1.02;;;24.00;49.00;;;;;;4972585;28;20442;-42
2022/06/26 11:56:17;;;;;;;2.72;0.80;;;23.80;49.70;;;;;;4972350;28;20201;-44
2022/06/26 11:58:47;;;;;;;3.88;1.00;;;23.60;50.50;;;;;;4972686;28;20035;-41
2022/06/26 12:01:14;;;;;;;4.97;0.98;;;23.30;53.70;;;;;;4972450;28;20023;-46
2022/06/26 12:03:49;;;;;;;3.53;0.70;;;23.50;51.90;;;;;;4972414;28;20474;-48
2022/06/26 12:06:50;;;;;;;3.78;1.00;;;23.10;54.00;;;;;;4972466;28;20034;-45
2022/06/26 12:09:26;;;;;;;5.25;1.00;;;23.40;52.70;;;;;;4930064;28;20046;-44
2022/06/26 12:11:54;;;;;;;4.65;0.88;;;23.50;53.20;;;;;;4954867;28;20035;-52
2022/06/26 12:14:23;;;;;;;5.95;1.08;;;23.60;55.30;;;;;;4972444;28;20054;-44
2022/06/26 12:16:50;;;;;;;;;;;23.60;52.10;;;;;;4972301;28;20042;-49
2022/06/26 12:19:17;;;;;;;4.22;1.00;;;23.00;52.10;;;;;;4971572;28;20004;-48
2022/06/26 12:21:51;;;;;;;2.92;0.77;;;22.90;57.70;;;;;;4971741;28;20091;-47
2022/06/26 12:24:18;;;;;;;6.03;1.20;;;22.40;56.10;;;;;;4971734;28;20054;-43
2022/06/26 12:26:44;;;;;;;5.38;1.00;;;22.80;57.10;;;;;;4969093;28;20031;-42
2022/06/26 12:29:12;;;;;;;5.18;0.98;;;23.00;57.70;;;;;;4972142;28;20023;-47
2022/06/26 12:31:39;;;;;;;5.50;1.00;;;22.60;54.00;;;;;;4971928;28;20165;-42
2022/06/26 12:34:06;;;;;;;5.50;0.82;;;22.30;55.80;;;;;;4954747;28;20015;-42
2022/06/26 12:36:32;;;;;;;5.45;1.20;;;22.60;57.50;;;;;;4972036;28;20093;-41
2022/06/26 12:38:58;;;;;;;5.03;1.17;;;22.50;56.60;;;;;;4971701;28;20054;-44
2022/06/26 12:41:24;;;;;;;6.45;1.20;;;22.60;57.90;;;;;;4971468;28;20019;-44
2022/06/26 12:43:54;;;;;;;4.78;1.02;;;22.40;54.70;;;;;;4971418;28;20367;-42
2022/06/26 12:46:20;;;;;;;3.60;1.10;;;22.40;56.50;;;;;;4969181;28;20023;-51
2022/06/26 12:48:47;;;;;;;2.35;0.77;;;22.10;59.70;;;;;;4971707;28;20097;-52
2022/06/26 12:51:14;;;;;;;5.05;0.95;;;22.10;58.50;;;;;;4971232;28;20879;-50
2022/06/26 12:53:41;;;;;;;2.90;0.88;;;22.50;63.40;;;;;;4971240;28;20496;-51
2022/06/26 12:56:07;;;;;;;5.82;1.20;;;22.50;57.70;;;;;;4971291;28;20031;-51
2022/06/26 12:58:33;;;;;;;8.23;1.35;;;22.50;61.50;;;;;;4971210;28;20101;-46
2022/06/26 13:00:59;;;;;;;4.75;1.00;;;22.80;62.20;;;;;;4971244;28;20466;-46
2022/06/26 13:03:24;;;;;;;6.10;1.13;;;22.30;61.20;;;;;;4971178;28;20061;-44